sensor_id;sensor_type;location;lat;lon;timestamp;pressure;altitude;pressure_sealevel;temperature;humidity
23473;BME280;11909;52.516;13.564;2023-06-22T00:01:22;101220.28;;;20.95;86.62
23473;BME280;11909;52.516;13.564;2023-06-22T00:03:50;101210.63;;;20.92;86.78
23473;BME280;11909;52.516;13.564;2023-06-22T00:06:18;101219.69;;;20.89;87.28
23473;BME280;11909;52.516;13.564;2023-06-22T00:08:47;101224.78;;;20.87;87.09
23473;BME280;11909;52.516;13.564;2023-06-22T00:11:15;101229.19;;;20.88;86.61
23473;BME280;11909;52.516;13.564;2023-06-22T00:13:44;101222.47;;;20.89;86.28
23473;BME280;11909;52.516;13.564;2023-06-22T00:16:14;101229.53;;;20.86;85.85
23473;BME280;11909;52.516;13.564;2023-06-22T00:18:42;101235.78;;;20.83;85.53
23473;BME280;11909;52.516;13.564;2023-06-22T00:21:14;101243.47;;;20.86;85.77
23473;BME280;11909;52.516;13.564;2023-06-22T00:23:41;101233.84;;;20.84;85.82
23473;BME280;11909;52.516;13.564;2023-06-22T00:26:11;101243.34;;;20.83;84.97
23473;BME280;11909;52.516;13.564;2023-06-22T00:31:07;101247.94;;;20.78;83.85
23473;BME280;11909;52.516;13.564;2023-06-22T00:33:35;101256.31;;;20.78;83.94
23473;BME280;11909;52.516;13.564;2023-06-22T00:36:03;101258.28;;;20.78;83.70
23473;BME280;11909;52.516;13.564;2023-06-22T00:38:31;101264.22;;;20.76;83.53
23473;BME280;11909;52.516;13.564;2023-06-22T00:40:59;101258.13;;;20.74;83.73
23473;BME280;11909;52.516;13.564;2023-06-22T00:43:28;101260.13;;;20.74;83.37
23473;BME280;11909;52.516;13.564;2023-06-22T00:45:56;101262.91;;;20.74;83.02
23473;BME280;11909;52.516;13.564;2023-06-22T00:48:24;101264.38;;;20.71;83.71
23473;BME280;11909;52.516;13.564;2023-06-22T00:50:53;101261.59;;;20.71;84.11
23473;BME280;11909;52.516;13.564;2023-06-22T00:53:22;101260.63;;;20.67;84.11
23473;BME280;11909;52.516;13.564;2023-06-22T00:55:50;101260.16;;;20.65;84.03
23473;BME280;11909;52.516;13.564;2023-06-22T00:58:19;101260.84;;;20.62;84.55
23473;BME280;11909;52.516;13.564;2023-06-22T01:00:51;101260.84;;;20.62;84.80
23473;BME280;11909;52.516;13.564;2023-06-22T01:03:19;101259.06;;;20.57;86.22
23473;BME280;11909;52.516;13.564;2023-06-22T01:05:48;101262.53;;;20.54;86.32
23473;BME280;11909;52.516;13.564;2023-06-22T01:08:26;101262.03;;;20.52;86.97
23473;BME280;11909;52.516;13.564;2023-06-22T01:11:00;101269.44;;;20.48;87.66
23473;BME280;11909;52.516;13.564;2023-06-22T01:13:35;101259.28;;;20.43;87.75
23473;BME280;11909;52.516;13.564;2023-06-22T01:16:10;101264.06;;;20.43;87.81
23473;BME280;11909;52.516;13.564;2023-06-22T01:18:41;101263.91;;;20.39;88.40
23473;BME280;11909;52.516;13.564;2023-06-22T01:21:12;101268.19;;;20.37;88.54
23473;BME280;11909;52.516;13.564;2023-06-22T01:23:58;101265.75;;;20.35;88.70
23473;BME280;11909;52.516;13.564;2023-06-22T01:26:38;101263.16;;;20.30;88.91
23473;BME280;11909;52.516;13.564;2023-06-22T01:29:12;101269.72;;;20.25;89.51
23473;BME280;11909;52.516;13.564;2023-06-22T01:31:43;101269.56;;;20.22;90.04
23473;BME280;11909;52.516;13.564;2023-06-22T01:34:13;101260.41;;;20.21;90.35
23473;BME280;11909;52.516;13.564;2023-06-22T01:36:42;101266.97;;;20.16;90.76
23473;BME280;11909;52.516;13.564;2023-06-22T01:39:11;101269.59;;;20.13;90.37
23473;BME280;11909;52.516;13.564;2023-06-22T01:41:41;101269.59;;;20.04;90.78
23473;BME280;11909;52.516;13.564;2023-06-22T01:44:12;101274.84;;;20.05;90.35
23473;BME280;11909;52.516;13.564;2023-06-22T01:46:40;101270.28;;;20.01;90.83
23473;BME280;11909;52.516;13.564;2023-06-22T01:49:08;101277.84;;;20.00;91.03
23473;BME280;11909;52.516;13.564;2023-06-22T01:51:37;101282.44;;;19.96;91.60
23473;BME280;11909;52.516;13.564;2023-06-22T01:54:06;101281.91;;;19.94;92.07
23473;BME280;11909;52.516;13.564;2023-06-22T01:56:34;101285.69;;;19.89;92.49
23473;BME280;11909;52.516;13.564;2023-06-22T01:59:05;101294.84;;;19.90;92.49
23473;BME280;11909;52.516;13.564;2023-06-22T02:01:42;101287.16;;;19.87;92.72
23473;BME280;11909;52.516;13.564;2023-06-22T02:04:13;101283.91;;;19.85;92.80
23473;BME280;11909;52.516;13.564;2023-06-22T02:06:43;101282.25;;;19.84;92.90
23473;BME280;11909;52.516;13.564;2023-06-22T02:09:16;101284.38;;;19.78;93.18
23473;BME280;11909;52.516;13.564;2023-06-22T02:11:46;101284.25;;;19.74;93.37
23473;BME280;11909;52.516;13.564;2023-06-22T02:14:15;101283.25;;;19.70;93.68
23473;BME280;11909;52.516;13.564;2023-06-22T02:16:47;101278.84;;;19.69;94.42
23473;BME280;11909;52.516;13.564;2023-06-22T02:19:14;101278.34;;;19.67;94.58
23473;BME280;11909;52.516;13.564;2023-06-22T02:21:45;101276.72;;;19.66;94.77
23473;BME280;11909;52.516;13.564;2023-06-22T02:24:13;101289.16;;;19.69;94.74
23473;BME280;11909;52.516;13.564;2023-06-22T02:26:41;101289.16;;;19.69;94.81
23473;BME280;11909;52.516;13.564;2023-06-22T02:29:12;101289.47;;;19.67;94.96
23473;BME280;11909;52.516;13.564;2023-06-22T02:31:39;101288.34;;;19.68;95.09
23473;BME280;11909;52.516;13.564;2023-06-22T02:34:09;101292.44;;;19.71;95.70
23473;BME280;11909;52.516;13.564;2023-06-22T02:36:37;101293.09;;;19.68;96.27
23473;BME280;11909;52.516;13.564;2023-06-22T02:39:05;101302.75;;;19.70;96.19
23473;BME280;11909;52.516;13.564;2023-06-22T02:41:33;101297.69;;;19.72;96.61
23473;BME280;11909;52.516;13.564;2023-06-22T02:44:01;101302.44;;;19.72;96.61
23473;BME280;11909;52.516;13.564;2023-06-22T02:46:28;101304.38;;;19.71;96.47
23473;BME280;11909;52.516;13.564;2023-06-22T02:48:56;101302.91;;;19.74;96.40
23473;BME280;11909;52.516;13.564;2023-06-22T02:51:25;101299.31;;;19.73;96.49
23473;BME280;11909;52.516;13.564;2023-06-22T02:53:53;101300.63;;;19.76;96.85
23473;BME280;11909;52.516;13.564;2023-06-22T02:56:24;101295.69;;;19.82;96.95
23473;BME280;11909;52.516;13.564;2023-06-22T02:58:52;101295.34;;;19.83;96.91
23473;BME280;11909;52.516;13.564;2023-06-22T03:01:20;101300.59;;;19.85;96.71
23473;BME280;11909;52.516;13.564;2023-06-22T03:03:51;101304.53;;;19.84;97.03
23473;BME280;11909;52.516;13.564;2023-06-22T03:06:19;101304.22;;;19.85;96.82
23473;BME280;11909;52.516;13.564;2023-06-22T03:08:51;101303.22;;;19.90;96.51
23473;BME280;11909;52.516;13.564;2023-06-22T03:11:19;101298.16;;;19.92;96.82
23473;BME280;11909;52.516;13.564;2023-06-22T03:13:47;101289.63;;;19.88;96.54
23473;BME280;11909;52.516;13.564;2023-06-22T03:16:14;101296.00;;;19.89;95.80
23473;BME280;11909;52.516;13.564;2023-06-22T03:18:42;101299.81;;;19.84;95.67
23473;BME280;11909;52.516;13.564;2023-06-22T03:21:10;101302.91;;;19.83;95.75
23473;BME280;11909;52.516;13.564;2023-06-22T03:23:38;101299.94;;;19.79;95.35
23473;BME280;11909;52.516;13.564;2023-06-22T03:26:08;101302.06;;;19.82;94.57
23473;BME280;11909;52.516;13.564;2023-06-22T03:28:37;101298.00;;;19.80;94.25
23473;BME280;11909;52.516;13.564;2023-06-22T03:31:04;101308.97;;;19.76;93.80
23473;BME280;11909;52.516;13.564;2023-06-22T03:33:33;101308.47;;;19.74;93.58
23473;BME280;11909;52.516;13.564;2023-06-22T03:36:01;101296.84;;;19.72;93.52
23473;BME280;11909;52.516;13.564;2023-06-22T03:38:29;101300.13;;;19.74;93.92
23473;BME280;11909;52.516;13.564;2023-06-22T03:40:57;101296.84;;;19.72;94.10
23473;BME280;11909;52.516;13.564;2023-06-22T03:43:26;101301.09;;;19.69;93.46
23473;BME280;11909;52.516;13.564;2023-06-22T03:45:54;101301.59;;;19.71;93.32
23473;BME280;11909;52.516;13.564;2023-06-22T03:48:22;101298.81;;;19.71;92.82
23473;BME280;11909;52.516;13.564;2023-06-22T03:50:50;101295.53;;;19.69;92.61
23473;BME280;11909;52.516;13.564;2023-06-22T03:53:18;101303.56;;;19.71;92.33
23473;BME280;11909;52.516;13.564;2023-06-22T03:55:49;101309.16;;;19.71;92.24
23473;BME280;11909;52.516;13.564;2023-06-22T03:58:18;101302.25;;;19.68;92.61
23473;BME280;11909;52.516;13.564;2023-06-22T04:00:49;101307.03;;;19.68;92.55
23473;BME280;11909;52.516;13.564;2023-06-22T04:03:17;101304.56;;;19.66;93.06
23473;BME280;11909;52.516;13.564;2023-06-22T04:05:46;101300.47;;;19.63;93.60
23473;BME280;11909;52.516;13.564;2023-06-22T04:08:15;101299.47;;;19.59;93.50
23473;BME280;11909;52.516;13.564;2023-06-22T04:10:42;101306.69;;;19.60;93.45
23473;BME280;11909;52.516;13.564;2023-06-22T04:13:11;101307.81;;;19.59;93.58
23473;BME280;11909;52.516;13.564;2023-06-22T04:15:39;101306.38;;;19.62;93.33
23473;BME280;11909;52.516;13.564;2023-06-22T04:18:08;101303.56;;;19.62;93.51
23473;BME280;11909;52.516;13.564;2023-06-22T04:20:36;101307.81;;;19.59;93.49
23473;BME280;11909;52.516;13.564;2023-06-22T04:23:04;101312.09;;;19.57;93.00
23473;BME280;11909;52.516;13.564;2023-06-22T04:25:33;101317.19;;;19.55;92.48
23473;BME280;11909;52.516;13.564;2023-06-22T04:28:01;101326.16;;;19.60;91.30
23473;BME280;11909;52.516;13.564;2023-06-22T04:30:32;101337.47;;;19.55;90.59
23473;BME280;11909;52.516;13.564;2023-06-22T04:33:00;101328.63;;;19.53;90.42
23473;BME280;11909;52.516;13.564;2023-06-22T04:35:29;101334.06;;;19.49;90.24
23473;BME280;11909;52.516;13.564;2023-06-22T04:37:58;101338.47;;;19.51;90.17
23473;BME280;11909;52.516;13.564;2023-06-22T04:40:26;101340.25;;;19.55;90.23
23473;BME280;11909;52.516;13.564;2023-06-22T04:42:54;101331.25;;;19.58;90.25
23473;BME280;11909;52.516;13.564;2023-06-22T04:45:22;101333.22;;;19.58;90.30
23473;BME280;11909;52.516;13.564;2023-06-22T04:47:49;101338.97;;;19.61;90.60
23473;BME280;11909;52.516;13.564;2023-06-22T04:50:18;101348.97;;;19.62;90.74
23473;BME280;11909;52.516;13.564;2023-06-22T04:52:49;101346.19;;;19.62;91.67
23473;BME280;11909;52.516;13.564;2023-06-22T04:55:18;101340.75;;;19.66;92.00
23473;BME280;11909;52.516;13.564;2023-06-22T04:57:46;101336.50;;;19.69;92.34
23473;BME280;11909;52.516;13.564;2023-06-22T05:00:16;101343.69;;;19.70;92.44
23473;BME280;11909;52.516;13.564;2023-06-22T05:02:46;101336.69;;;19.72;91.43
23473;BME280;11909;52.516;13.564;2023-06-22T05:05:15;101335.66;;;19.77;92.06
23473;BME280;11909;52.516;13.564;2023-06-22T05:07:44;101338.94;;;19.79;91.89
23473;BME280;11909;52.516;13.564;2023-06-22T05:10:15;101337.47;;;19.82;91.71
23473;BME280;11909;52.516;13.564;2023-06-22T05:12:43;101336.13;;;19.88;91.75
23473;BME280;11909;52.516;13.564;2023-06-22T05:15:11;101341.56;;;19.93;91.74
23473;BME280;11909;52.516;13.564;2023-06-22T05:17:39;101340.25;;;19.99;92.83
23473;BME280;11909;52.516;13.564;2023-06-22T05:20:10;101338.94;;;20.05;92.56
23473;BME280;11909;52.516;13.564;2023-06-22T05:22:39;101341.06;;;20.09;92.67
23473;BME280;11909;52.516;13.564;2023-06-22T05:25:10;101346.78;;;20.12;92.77
23473;BME280;11909;52.516;13.564;2023-06-22T05:27:40;101340.72;;;20.19;92.74
23473;BME280;11909;52.516;13.564;2023-06-22T05:30:09;101346.44;;;20.23;92.87
23473;BME280;11909;52.516;13.564;2023-06-22T05:32:38;101346.75;;;20.30;93.26
23473;BME280;11909;52.516;13.564;2023-06-22T05:35:06;101347.72;;;20.34;93.78
23473;BME280;11909;52.516;13.564;2023-06-22T05:37:34;101348.69;;;20.38;94.13
23473;BME280;11909;52.516;13.564;2023-06-22T05:40:03;101349.16;;;20.40;93.54
23473;BME280;11909;52.516;13.564;2023-06-22T05:42:31;101348.19;;;20.45;93.62
23473;BME280;11909;52.516;13.564;2023-06-22T05:45:00;101348.78;;;20.51;91.88
23473;BME280;11909;52.516;13.564;2023-06-22T05:47:28;101352.88;;;20.53;90.04
23473;BME280;11909;52.516;13.564;2023-06-22T05:49:56;101361.91;;;20.59;89.73
23473;BME280;11909;52.516;13.564;2023-06-22T05:52:25;101368.28;;;20.59;89.59
23473;BME280;11909;52.516;13.564;2023-06-22T05:54:52;101366.13;;;20.65;89.69
23473;BME280;11909;52.516;13.564;2023-06-22T05:57:20;101371.69;;;20.65;89.73
23473;BME280;11909;52.516;13.564;2023-06-22T05:59:48;101374.16;;;20.67;88.89
23473;BME280;11909;52.516;13.564;2023-06-22T06:02:18;101383.03;;;20.69;88.16
23473;BME280;11909;52.516;13.564;2023-06-22T06:04:46;101387.09;;;20.71;84.08
23473;BME280;11909;52.516;13.564;2023-06-22T06:09:42;101401.19;;;20.84;83.57
23473;BME280;11909;52.516;13.564;2023-06-22T06:12:10;101395.09;;;20.90;81.55
23473;BME280;11909;52.516;13.564;2023-06-22T06:14:38;101395.91;;;20.91;81.58
23473;BME280;11909;52.516;13.564;2023-06-22T06:17:05;101397.34;;;20.97;83.42
23473;BME280;11909;52.516;13.564;2023-06-22T06:19:35;101391.75;;;20.97;83.60
23473;BME280;11909;52.516;13.564;2023-06-22T06:22:03;101385.03;;;20.98;84.54
23473;BME280;11909;52.516;13.564;2023-06-22T06:24:31;101378.97;;;20.96;84.32
23473;BME280;11909;52.516;13.564;2023-06-22T06:26:59;101375.84;;;20.98;84.08
23473;BME280;11909;52.516;13.564;2023-06-22T06:29:31;101369.59;;;21.01;84.87
23473;BME280;11909;52.516;13.564;2023-06-22T06:31:59;101366.81;;;21.01;85.27
23473;BME280;11909;52.516;13.564;2023-06-22T06:34:27;101372.53;;;21.04;83.81
23473;BME280;11909;52.516;13.564;2023-06-22T06:36:56;101379.34;;;21.16;81.68
23473;BME280;11909;52.516;13.564;2023-06-22T06:39:24;101382.28;;;21.19;82.01
23473;BME280;11909;52.516;13.564;2023-06-22T06:41:52;101394.88;;;21.26;80.38
23473;BME280;11909;52.516;13.564;2023-06-22T06:44:20;101395.16;;;21.33;80.31
23473;BME280;11909;52.516;13.564;2023-06-22T06:46:48;101395.56;;;21.44;78.56
23473;BME280;11909;52.516;13.564;2023-06-22T06:49:16;101391.78;;;21.48;78.47
23473;BME280;11909;52.516;13.564;2023-06-22T06:51:45;101409.78;;;21.60;75.28
23473;BME280;11909;52.516;13.564;2023-06-22T06:54:14;101403.66;;;21.67;77.30
23473;BME280;11909;52.516;13.564;2023-06-22T06:56:42;101395.91;;;21.72;77.33
23473;BME280;11909;52.516;13.564;2023-06-22T06:59:11;101392.88;;;21.77;75.58
23473;BME280;11909;52.516;13.564;2023-06-22T07:01:39;101398.28;;;21.83;72.69
23473;BME280;11909;52.516;13.564;2023-06-22T07:04:07;101389.34;;;21.89;72.73
23473;BME280;11909;52.516;13.564;2023-06-22T07:06:35;101387.03;;;21.91;74.40
23473;BME280;11909;52.516;13.564;2023-06-22T07:09:04;101390.88;;;21.99;72.08
23473;BME280;11909;52.516;13.564;2023-06-22T07:11:33;101401.03;;;22.04;69.26
23473;BME280;11909;52.516;13.564;2023-06-22T07:14:01;101390.00;;;22.08;71.87
23473;BME280;11909;52.516;13.564;2023-06-22T07:16:30;101376.50;;;22.10;73.35
23473;BME280;11909;52.516;13.564;2023-06-22T07:18:58;101378.75;;;22.16;73.73
23473;BME280;11909;52.516;13.564;2023-06-22T07:21:27;101374.31;;;22.15;72.84
23473;BME280;11909;52.516;13.564;2023-06-22T07:23:54;101368.50;;;22.20;72.85
23473;BME280;11909;52.516;13.564;2023-06-22T07:26:23;101364.09;;;22.32;70.71
23473;BME280;11909;52.516;13.564;2023-06-22T07:28:52;101362.22;;;22.36;71.67
23473;BME280;11909;52.516;13.564;2023-06-22T07:31:20;101357.22;;;22.42;72.76
23473;BME280;11909;52.516;13.564;2023-06-22T07:33:48;101350.41;;;22.52;74.04
23473;BME280;11909;52.516;13.564;2023-06-22T07:36:16;101374.53;;;22.69;66.78
23473;BME280;11909;52.516;13.564;2023-06-22T07:38:44;101370.69;;;22.73;64.79
23473;BME280;11909;52.516;13.564;2023-06-22T07:41:13;101378.16;;;22.82;63.69
23473;BME280;11909;52.516;13.564;2023-06-22T07:43:41;101374.78;;;22.88;63.24
23473;BME280;11909;52.516;13.564;2023-06-22T07:46:10;101363.13;;;22.99;66.00
23473;BME280;11909;52.516;13.564;2023-06-22T07:48:38;101351.69;;;23.04;68.70
23473;BME280;11909;52.516;13.564;2023-06-22T07:51:08;101364.06;;;23.03;66.61
23473;BME280;11909;52.516;13.564;2023-06-22T07:53:39;101367.56;;;23.00;65.08
23473;BME280;11909;52.516;13.564;2023-06-22T07:56:09;101370.91;;;23.05;63.07
23473;BME280;11909;52.516;13.564;2023-06-22T07:58:37;101365.81;;;23.08;64.96
23473;BME280;11909;52.516;13.564;2023-06-22T08:01:06;101363.56;;;23.13;68.25
23473;BME280;11909;52.516;13.564;2023-06-22T08:03:37;101348.50;;;23.18;70.54
23473;BME280;11909;52.516;13.564;2023-06-22T08:06:07;101353.06;;;23.23;67.78
23473;BME280;11909;52.516;13.564;2023-06-22T08:08:36;101354.34;;;23.25;67.06
23473;BME280;11909;52.516;13.564;2023-06-22T08:11:04;101360.06;;;23.29;64.48
23473;BME280;11909;52.516;13.564;2023-06-22T08:13:32;101357.72;;;23.31;67.51
23473;BME280;11909;52.516;13.564;2023-06-22T08:16:00;101354.94;;;23.31;67.79
23473;BME280;11909;52.516;13.564;2023-06-22T08:18:28;101351.69;;;23.29;67.66
23473;BME280;11909;52.516;13.564;2023-06-22T08:20:58;101370.44;;;23.28;62.85
23473;BME280;11909;52.516;13.564;2023-06-22T08:23:25;101366.97;;;23.31;64.79
23473;BME280;11909;52.516;13.564;2023-06-22T08:25:53;101369.41;;;23.33;66.27
23473;BME280;11909;52.516;13.564;2023-06-22T08:28:21;101358.44;;;23.28;64.90
23473;BME280;11909;52.516;13.564;2023-06-22T08:30:49;101377.00;;;23.32;64.19
23473;BME280;11909;52.516;13.564;2023-06-22T08:33:17;101371.50;;;23.24;64.55
23473;BME280;11909;52.516;13.564;2023-06-22T08:35:54;101361.94;;;23.25;67.71
23473;BME280;11909;52.516;13.564;2023-06-22T08:38:24;101349.91;;;23.24;68.14
23473;BME280;11909;52.516;13.564;2023-06-22T08:40:51;101371.28;;;23.29;61.99
23473;BME280;11909;52.516;13.564;2023-06-22T08:43:20;101369.66;;;23.28;64.66
23473;BME280;11909;52.516;13.564;2023-06-22T08:45:48;101377.78;;;23.33;61.58
23473;BME280;11909;52.516;13.564;2023-06-22T08:48:15;101366.25;;;23.34;62.90
23473;BME280;11909;52.516;13.564;2023-06-22T08:50:43;101365.53;;;23.38;63.53
23473;BME280;11909;52.516;13.564;2023-06-22T08:53:11;101360.41;;;23.40;64.71
23473;BME280;11909;52.516;13.564;2023-06-22T08:55:41;101369.25;;;23.42;63.23
23473;BME280;11909;52.516;13.564;2023-06-22T08:58:08;101359.69;;;23.43;65.98
23473;BME280;11909;52.516;13.564;2023-06-22T09:00:36;101359.44;;;23.48;63.75
23473;BME280;11909;52.516;13.564;2023-06-22T09:03:04;101365.94;;;23.52;64.25
23473;BME280;11909;52.516;13.564;2023-06-22T09:05:33;101369.31;;;23.58;62.74
23473;BME280;11909;52.516;13.564;2023-06-22T09:08:00;101375.50;;;23.63;61.73
23473;BME280;11909;52.516;13.564;2023-06-22T09:10:28;101369.56;;;23.65;61.82
23473;BME280;11909;52.516;13.564;2023-06-22T09:12:58;101354.91;;;23.72;61.56
23473;BME280;11909;52.516;13.564;2023-06-22T09:15:26;101353.13;;;23.80;63.07
23473;BME280;11909;52.516;13.564;2023-06-22T09:17:54;101355.84;;;24.04;60.34
23473;BME280;11909;52.516;13.564;2023-06-22T09:20:24;101348.00;;;24.10;62.42
23473;BME280;11909;52.516;13.564;2023-06-22T09:22:52;101360.56;;;24.16;61.83
23473;BME280;11909;52.516;13.564;2023-06-22T09:25:20;101349.09;;;24.22;62.30
23473;BME280;11909;52.516;13.564;2023-06-22T09:27:48;101353.44;;;24.19;62.02
23473;BME280;11909;52.516;13.564;2023-06-22T09:30:17;101341.50;;;24.22;62.59
23473;BME280;11909;52.516;13.564;2023-06-22T09:32:45;101338.34;;;24.24;64.36
23473;BME280;11909;52.516;13.564;2023-06-22T09:35:13;101361.34;;;24.45;56.79
23473;BME280;11909;52.516;13.564;2023-06-22T09:37:41;101355.91;;;24.37;57.18
23473;BME280;11909;52.516;13.564;2023-06-22T09:40:09;101356.72;;;24.53;56.62
23473;BME280;11909;52.516;13.564;2023-06-22T09:42:40;101348.47;;;24.44;57.42
23473;BME280;11909;52.516;13.564;2023-06-22T09:45:09;101342.63;;;24.49;60.79
23473;BME280;11909;52.516;13.564;2023-06-22T09:47:39;101344.69;;;24.53;61.67
23473;BME280;11909;52.516;13.564;2023-06-22T09:50:07;101340.06;;;24.60;59.70
23473;BME280;11909;52.516;13.564;2023-06-22T09:52:35;101349.66;;;24.59;58.96
23473;BME280;11909;52.516;13.564;2023-06-22T09:55:07;101329.84;;;24.68;64.10
23473;BME280;11909;52.516;13.564;2023-06-22T09:57:35;101341.06;;;24.68;62.67
23473;BME280;11909;52.516;13.564;2023-06-22T10:00:04;101345.13;;;24.71;60.60
23473;BME280;11909;52.516;13.564;2023-06-22T10:02:35;101348.13;;;24.78;59.34
23473;BME280;11909;52.516;13.564;2023-06-22T10:05:05;101355.63;;;24.90;57.69
23473;BME280;11909;52.516;13.564;2023-06-22T10:07:34;101358.94;;;25.12;53.82
23473;BME280;11909;52.516;13.564;2023-06-22T10:10:07;101364.53;;;25.28;52.78
23473;BME280;11909;52.516;13.564;2023-06-22T10:12:35;101382.88;;;25.41;49.00
23473;BME280;11909;52.516;13.564;2023-06-22T10:15:04;101368.78;;;25.22;49.77
23473;BME280;11909;52.516;13.564;2023-06-22T10:17:32;101359.84;;;25.16;54.68
23473;BME280;11909;52.516;13.564;2023-06-22T10:20:00;101345.53;;;25.21;60.52
23473;BME280;11909;52.516;13.564;2023-06-22T10:22:34;101347.75;;;25.31;55.11
23473;BME280;11909;52.516;13.564;2023-06-22T10:25:01;101354.63;;;25.34;53.62
23473;BME280;11909;52.516;13.564;2023-06-22T10:27:29;101343.91;;;25.40;56.59
23473;BME280;11909;52.516;13.564;2023-06-22T10:29:58;101342.00;;;25.44;56.67
23473;BME280;11909;52.516;13.564;2023-06-22T10:32:26;101362.81;;;25.59;51.21
23473;BME280;11909;52.516;13.564;2023-06-22T10:34:54;101339.56;;;25.62;54.26
23473;BME280;11909;52.516;13.564;2023-06-22T10:37:25;101332.47;;;25.68;56.29
23473;BME280;11909;52.516;13.564;2023-06-22T10:39:54;101330.31;;;25.81;55.11
23473;BME280;11909;52.516;13.564;2023-06-22T10:42:22;101322.47;;;25.90;55.63
23473;BME280;11909;52.516;13.564;2023-06-22T10:44:50;101324.34;;;26.06;54.03
23473;BME280;11909;52.516;13.564;2023-06-22T10:47:18;101323.19;;;26.07;52.51
23473;BME280;11909;52.516;13.564;2023-06-22T10:49:46;101338.28;;;26.18;48.83
23473;BME280;11909;52.516;13.564;2023-06-22T10:52:14;101331.53;;;26.23;50.87
23473;BME280;11909;52.516;13.564;2023-06-22T10:54:42;101313.16;;;26.29;51.86
23473;BME280;11909;52.516;13.564;2023-06-22T10:57:11;101316.06;;;26.37;52.23
23473;BME280;11909;52.516;13.564;2023-06-22T10:59:39;101323.94;;;26.51;48.52
23473;BME280;11909;52.516;13.564;2023-06-22T11:02:07;101314.00;;;26.57;50.87
23473;BME280;11909;52.516;13.564;2023-06-22T11:04:35;101309.34;;;26.68;52.71
23473;BME280;11909;52.516;13.564;2023-06-22T11:07:04;101324.59;;;26.90;44.98
23473;BME280;11909;52.516;13.564;2023-06-22T11:09:32;101306.88;;;26.90;46.74
23473;BME280;11909;52.516;13.564;2023-06-22T11:12:00;101306.09;;;26.89;46.87
23473;BME280;11909;52.516;13.564;2023-06-22T11:14:29;101297.28;;;26.95;50.11
23473;BME280;11909;52.516;13.564;2023-06-22T11:16:57;101292.94;;;27.01;50.01
23473;BME280;11909;52.516;13.564;2023-06-22T11:19:25;101293.88;;;27.09;49.68
23473;BME280;11909;52.516;13.564;2023-06-22T11:21:53;101302.94;;;27.25;45.11
23473;BME280;11909;52.516;13.564;2023-06-22T11:24:21;101298.16;;;27.29;48.63
23473;BME280;11909;52.516;13.564;2023-06-22T11:26:49;101292.38;;;27.49;48.07
23473;BME280;11909;52.516;13.564;2023-06-22T11:29:17;101286.31;;;27.47;49.29
23473;BME280;11909;52.516;13.564;2023-06-22T11:32:05;101301.63;;;27.49;43.16
23473;BME280;11909;52.516;13.564;2023-06-22T11:34:33;101284.69;;;27.46;46.63
23473;BME280;11909;52.516;13.564;2023-06-22T11:37:01;101272.69;;;27.53;50.76
23473;BME280;11909;52.516;13.564;2023-06-22T11:39:29;101270.00;;;27.63;48.88
23473;BME280;11909;52.516;13.564;2023-06-22T11:42:13;101264.03;;;27.69;50.15
23473;BME280;11909;52.516;13.564;2023-06-22T11:44:42;101272.97;;;27.78;48.97
23473;BME280;11909;52.516;13.564;2023-06-22T11:47:11;101277.88;;;27.85;48.58
23473;BME280;11909;52.516;13.564;2023-06-22T11:49:39;101276.22;;;27.80;47.93
23473;BME280;11909;52.516;13.564;2023-06-22T11:52:07;101274.22;;;27.81;47.29
23473;BME280;11909;52.516;13.564;2023-06-22T11:54:35;101283.16;;;27.90;45.65
23473;BME280;11909;52.516;13.564;2023-06-22T11:57:04;101278.31;;;27.90;47.00
23473;BME280;11909;52.516;13.564;2023-06-22T11:59:32;101283.53;;;27.88;44.70
23473;BME280;11909;52.516;13.564;2023-06-22T12:02:00;101268.69;;;27.95;49.70
23473;BME280;11909;52.516;13.564;2023-06-22T12:04:29;101284.94;;;28.05;48.48
23473;BME280;11909;52.516;13.564;2023-06-22T12:06:57;101286.56;;;28.10;45.80
23473;BME280;11909;52.516;13.564;2023-06-22T12:09:25;101292.19;;;28.07;44.82
23473;BME280;11909;52.516;13.564;2023-06-22T12:11:53;101293.50;;;28.16;44.10
23473;BME280;11909;52.516;13.564;2023-06-22T12:14:21;101277.38;;;28.17;47.50
23473;BME280;11909;52.516;13.564;2023-06-22T12:16:49;101288.75;;;28.28;40.90
23473;BME280;11909;52.516;13.564;2023-06-22T12:19:17;101262.53;;;28.24;45.30
23473;BME280;11909;52.516;13.564;2023-06-22T12:21:46;101251.38;;;28.38;50.33
23473;BME280;11909;52.516;13.564;2023-06-22T12:24:14;101254.94;;;28.35;46.11
23473;BME280;11909;52.516;13.564;2023-06-22T12:26:42;101255.38;;;28.37;48.03
23473;BME280;11909;52.516;13.564;2023-06-22T12:29:10;101253.41;;;28.45;47.68
23473;BME280;11909;52.516;13.564;2023-06-22T12:31:38;101242.22;;;28.59;50.38
23473;BME280;11909;52.516;13.564;2023-06-22T12:34:06;101241.06;;;28.68;47.90
23473;BME280;11909;52.516;13.564;2023-06-22T12:36:34;101235.81;;;28.70;47.15
23473;BME280;11909;52.516;13.564;2023-06-22T12:39:04;101235.81;;;28.70;46.10
23473;BME280;11909;52.516;13.564;2023-06-22T12:41:32;101212.88;;;28.75;49.36
23473;BME280;11909;52.516;13.564;2023-06-22T12:44:00;101229.06;;;28.82;44.03
23473;BME280;11909;52.516;13.564;2023-06-22T12:46:27;101214.94;;;28.82;48.94
23473;BME280;11909;52.516;13.564;2023-06-22T12:48:56;101220.63;;;28.89;46.98
23473;BME280;11909;52.516;13.564;2023-06-22T12:51:24;101245.66;;;28.87;40.60
23473;BME280;11909;52.516;13.564;2023-06-22T12:53:52;101233.41;;;28.68;41.83